createdAt,value
2023-01-31T00:00:00.359Z,73.63
2023-01-31T00:01:04.147Z,73.58
2023-01-31T00:02:00.401Z,73.58
2023-01-31T00:03:00.349Z,73.58
2023-01-31T00:04:01.974Z,73.58
2023-01-31T00:05:00.376Z,73.58
2023-01-31T00:06:10.261Z,73.64
2023-01-31T00:07:00.392Z,73.64
2023-01-31T00:08:00.371Z,73.64
2023-01-31T00:09:01.160Z,73.64
2023-01-31T00:10:00.353Z,73.64
2023-01-31T00:11:00.435Z,73.77
2023-01-31T00:12:00.347Z,73.77
2023-01-31T00:13:00.412Z,73.77
2023-01-31T00:14:00.943Z,73.77
2023-01-31T00:15:00.441Z,73.77
2023-01-31T00:16:00.872Z,73.78
2023-01-31T00:17:00.408Z,73.78
2023-01-31T00:18:00.371Z,73.78
2023-01-31T00:19:00.382Z,73.78
2023-01-31T00:20:00.344Z,73.78
2023-01-31T00:21:04.850Z,73.79
2023-01-31T00:22:00.376Z,73.79
2023-01-31T00:23:00.357Z,73.79
2023-01-31T00:24:00.651Z,73.79
2023-01-31T00:25:00.363Z,73.79
2023-01-31T00:26:10.261Z,73.75
2023-01-31T00:27:00.357Z,73.75
2023-01-31T00:28:00.353Z,73.75
2023-01-31T00:29:01.585Z,73.75
2023-01-31T00:30:00.435Z,73.75
2023-01-31T00:31:00.394Z,73.72
2023-01-31T00:32:00.492Z,73.72
2023-01-31T00:33:00.804Z,73.72
2023-01-31T00:34:00.806Z,73.72
2023-01-31T00:35:00.363Z,73.72
2023-01-31T00:36:02.408Z,73.79
2023-01-31T00:37:00.439Z,73.79
2023-01-31T00:38:00.345Z,73.79
2023-01-31T00:39:01.954Z,73.79
2023-01-31T00:40:00.357Z,73.79
2023-01-31T00:41:00.668Z,73.84
2023-01-31T00:42:00.408Z,73.84
2023-01-31T00:43:00.398Z,73.84
2023-01-31T00:44:00.870Z,73.84
2023-01-31T00:45:00.429Z,73.84
2023-01-31T00:46:00.376Z,73.74
2023-01-31T00:47:00.514Z,73.74
2023-01-31T00:48:00.368Z,73.74
2023-01-31T00:49:00.362Z,73.74
2023-01-31T00:50:00.382Z,73.74
2023-01-31T00:51:00.529Z,73.89
2023-01-31T00:52:00.383Z,73.89
2023-01-31T00:53:00.469Z,73.89
2023-01-31T00:54:00.369Z,73.89
2023-01-31T00:55:00.360Z,73.89
2023-01-31T00:56:02.761Z,73.91
2023-01-31T00:57:00.377Z,73.91
2023-01-31T00:58:00.457Z,73.91
2023-01-31T00:59:00.458Z,73.91
2023-01-31T01:00:00.376Z,73.91
2023-01-31T01:01:10.325Z,73.87
2023-01-31T01:02:00.480Z,73.87
2023-01-31T01:03:00.344Z,73.87
2023-01-31T01:04:00.794Z,73.87
2023-01-31T01:05:00.354Z,73.87
2023-01-31T01:06:00.377Z,73.87
2023-01-31T01:07:00.365Z,73.87
2023-01-31T01:08:00.422Z,73.87
2023-01-31T01:09:00.361Z,73.87
2023-01-31T01:10:00.405Z,73.87
2023-01-31T01:11:04.907Z,74.18
2023-01-31T01:12:00.354Z,74.18
2023-01-31T01:13:00.511Z,74.18
2023-01-31T01:14:00.868Z,74.18
2023-01-31T01:15:00.502Z,74.18
2023-01-31T01:16:04.864Z,74.39
2023-01-31T01:17:00.359Z,74.39
2023-01-31T01:18:00.365Z,74.39
2023-01-31T01:19:01.340Z,74.39
2023-01-31T01:20:00.442Z,74.39
2023-01-31T01:21:04.353Z,74.47
2023-01-31T01:22:00.372Z,74.47
2023-01-31T01:23:00.387Z,74.47
2023-01-31T01:24:00.882Z,74.47
2023-01-31T01:25:00.385Z,74.47
2023-01-31T01:26:00.376Z,74.56
2023-01-31T01:27:00.479Z,74.56
2023-01-31T01:28:00.353Z,74.56
2023-01-31T01:29:01.011Z,74.56
2023-01-31T01:30:00.353Z,74.56
2023-01-31T01:31:04.758Z,74.42
2023-01-31T01:32:00.867Z,74.42
2023-01-31T01:33:00.334Z,74.42
2023-01-31T01:34:01.836Z,74.42
2023-01-31T01:35:00.370Z,74.42
2023-01-31T01:36:01.136Z,74.24
2023-01-31T01:37:00.350Z,74.24
2023-01-31T01:38:00.828Z,74.24
2023-01-31T01:39:00.770Z,74.24
2023-01-31T01:40:00.575Z,74.24
2023-01-31T01:41:00.597Z,74.23
2023-01-31T01:42:00.343Z,74.23
2023-01-31T01:43:00.392Z,74.23
2023-01-31T01:44:01.257Z,74.23
2023-01-31T01:45:02.252Z,74.23
2023-01-31T01:46:00.539Z,74.14
2023-01-31T01:47:00.639Z,74.14
2023-01-31T01:48:03.289Z,74.14
2023-01-31T01:49:00.351Z,74.14
2023-01-31T01:50:08.352Z,74.14
2023-01-31T01:51:02.400Z,74.22
2023-01-31T01:52:02.625Z,74.22
2023-01-31T01:53:00.352Z,74.22
2023-01-31T01:54:03.810Z,74.22
2023-01-31T01:55:05.936Z,74.22
2023-01-31T01:56:04.642Z,74.23
2023-01-31T01:57:02.429Z,74.23
2023-01-31T01:58:07.109Z,74.23
2023-01-31T01:59:02.486Z,74.23
2023-01-31T02:00:06.134Z,74.23
2023-01-31T02:01:02.729Z,74.32
2023-01-31T02:02:00.801Z,74.32
2023-01-31T02:03:03.188Z,74.32
2023-01-31T02:04:01.688Z,74.32
2023-01-31T02:05:00.980Z,74.32
2023-01-31T02:06:02.772Z,74.20
2023-01-31T02:07:00.642Z,74.20
2023-01-31T02:08:01.222Z,74.20
2023-01-31T02:09:00.461Z,74.20
2023-01-31T02:10:03.778Z,74.20
2023-01-31T02:11:00.336Z,74.35
2023-01-31T02:12:00.350Z,74.35
2023-01-31T02:13:01.254Z,74.35
2023-01-31T02:14:02.329Z,74.35
2023-01-31T02:15:00.468Z,74.35
2023-01-31T02:16:00.385Z,74.36
2023-01-31T02:17:00.399Z,74.36
2023-01-31T02:18:00.482Z,74.36
2023-01-31T02:19:00.788Z,74.36
2023-01-31T02:20:10.262Z,74.36
2023-01-31T02:21:01.364Z,74.67
2023-01-31T02:22:00.361Z,74.67
2023-01-31T02:23:00.332Z,74.67
2023-01-31T02:24:00.339Z,74.67
2023-01-31T02:25:00.331Z,74.67
2023-01-31T02:26:01.353Z,74.62
2023-01-31T02:27:10.283Z,74.62
2023-01-31T02:28:10.274Z,74.62
2023-01-31T02:29:10.244Z,74.62
2023-01-31T02:30:07.927Z,74.62
2023-01-31T02:31:03.697Z,74.77
2023-01-31T02:32:11.675Z,74.77
2023-01-31T02:33:10.287Z,74.77
2023-01-31T02:34:08.653Z,74.77
2023-01-31T02:35:10.262Z,74.77
2023-01-31T02:36:00.353Z,74.72
2023-01-31T02:37:10.265Z,74.72
2023-01-31T02:38:07.122Z,74.72
2023-01-31T02:39:10.275Z,74.72
2023-01-31T02:40:10.254Z,74.72
2023-01-31T02:41:09.557Z,74.92
2023-01-31T02:42:10.279Z,74.92
2023-01-31T02:43:10.266Z,74.92
2023-01-31T02:44:09.365Z,74.92
2023-01-31T02:45:07.983Z,74.92
2023-01-31T02:46:03.673Z,75.06
2023-01-31T02:47:09.484Z,75.06
2023-01-31T02:48:10.277Z,75.06
2023-01-31T02:49:09.240Z,75.06
2023-01-31T02:50:00.340Z,75.06
2023-01-31T02:51:03.673Z,74.97
2023-01-31T02:52:10.293Z,74.97
2023-01-31T02:53:00.340Z,74.97
2023-01-31T02:54:10.261Z,74.97
2023-01-31T02:55:06.143Z,74.97
2023-01-31T02:56:03.146Z,74.83
2023-01-31T02:57:00.685Z,74.83
2023-01-31T02:58:02.057Z,74.83
2023-01-31T02:59:04.465Z,74.83
2023-01-31T03:00:00.624Z,74.83
2023-01-31T03:01:02.336Z,74.95
2023-01-31T03:02:02.268Z,74.95
2023-01-31T03:03:03.512Z,74.95
2023-01-31T03:04:02.770Z,74.95
2023-01-31T03:05:00.495Z,74.95
2023-01-31T03:06:10.267Z,75.08
2023-01-31T03:07:05.756Z,75.08
2023-01-31T03:08:01.841Z,75.08
2023-01-31T03:09:06.400Z,75.08
2023-01-31T03:10:10.272Z,75.08
2023-01-31T03:11:03.231Z,75.28
2023-01-31T03:12:07.397Z,75.28
2023-01-31T03:13:09.983Z,75.28
2023-01-31T03:14:10.261Z,75.28
2023-01-31T03:15:06.693Z,75.28
2023-01-31T03:16:00.348Z,75.07
2023-01-31T03:17:00.393Z,75.07
2023-01-31T03:18:10.258Z,75.07
2023-01-31T03:19:10.261Z,75.07
2023-01-31T03:20:10.268Z,75.07
2023-01-31T03:21:06.176Z,75.31
2023-01-31T03:22:04.670Z,75.31
2023-01-31T03:23:02.382Z,75.31
2023-01-31T03:24:01.397Z,75.31
2023-01-31T03:25:01.315Z,75.31
2023-01-31T03:26:02.257Z,75.12
2023-01-31T03:27:00.472Z,75.12
2023-01-31T03:28:03.285Z,75.12
2023-01-31T03:29:01.775Z,75.12
2023-01-31T03:30:04.534Z,75.12
2023-01-31T03:31:06.448Z,75.31
2023-01-31T03:32:04.270Z,75.31
2023-01-31T03:33:05.299Z,75.31
2023-01-31T03:34:03.733Z,75.31
2023-01-31T03:35:00.420Z,75.31
2023-01-31T03:36:10.289Z,75.26
2023-01-31T03:37:00.333Z,75.26
2023-01-31T03:38:04.780Z,75.26
2023-01-31T03:39:07.865Z,75.26
2023-01-31T03:40:10.267Z,75.26
2023-01-31T03:41:07.743Z,75.35
2023-01-31T03:42:03.346Z,75.35
2023-01-31T03:43:04.388Z,75.35
2023-01-31T03:44:04.927Z,75.35
2023-01-31T03:45:01.358Z,75.35
2023-01-31T03:46:06.429Z,75.45
2023-01-31T03:47:04.591Z,75.45
2023-01-31T03:48:01.725Z,75.45
2023-01-31T03:49:02.951Z,75.45
2023-01-31T03:50:02.902Z,75.45
2023-01-31T03:51:03.487Z,75.82
2023-01-31T03:52:04.464Z,75.82
2023-01-31T03:53:06.524Z,75.82
2023-01-31T03:54:03.797Z,75.82
2023-01-31T03:55:04.623Z,75.82
2023-01-31T03:56:03.995Z,76.17
2023-01-31T03:57:05.015Z,76.17
2023-01-31T03:58:02.267Z,76.17
2023-01-31T03:59:03.689Z,76.17
2023-01-31T04:00:02.855Z,76.17
2023-01-31T04:01:01.464Z,75.91
2023-01-31T04:02:00.840Z,75.91
2023-01-31T04:03:06.556Z,75.91
2023-01-31T04:04:04.484Z,75.91
2023-01-31T04:05:04.347Z,75.91
2023-01-31T04:06:00.477Z,76.06
2023-01-31T04:07:00.799Z,76.06
2023-01-31T04:08:00.564Z,76.06
2023-01-31T04:09:00.454Z,76.06
2023-01-31T04:10:00.649Z,76.06
2023-01-31T04:11:03.754Z,76.11
2023-01-31T04:12:00.887Z,76.11
2023-01-31T04:13:00.382Z,76.11
2023-01-31T04:14:00.365Z,76.11
2023-01-31T04:15:00.452Z,76.11
2023-01-31T04:16:00.609Z,76.17
2023-01-31T04:17:00.364Z,76.17
2023-01-31T04:18:00.384Z,76.17
2023-01-31T04:19:00.396Z,76.17
2023-01-31T04:20:00.616Z,76.17
2023-01-31T04:21:00.342Z,76.52
2023-01-31T04:22:00.355Z,76.52
2023-01-31T04:23:00.380Z,76.52
2023-01-31T04:24:00.381Z,76.52
2023-01-31T04:25:00.447Z,76.52
2023-01-31T04:26:00.384Z,76.33
2023-01-31T04:27:00.407Z,76.33
2023-01-31T04:28:00.347Z,76.33
2023-01-31T04:29:00.397Z,76.33
2023-01-31T04:30:00.421Z,76.33
2023-01-31T04:31:00.486Z,76.55
2023-01-31T04:32:00.423Z,76.55
2023-01-31T04:33:00.364Z,76.55
2023-01-31T04:34:00.351Z,76.55
2023-01-31T04:35:02.362Z,76.55
2023-01-31T04:36:00.355Z,76.50
2023-01-31T04:37:00.375Z,76.50
2023-01-31T04:38:00.387Z,76.50
2023-01-31T04:39:00.490Z,76.50
2023-01-31T04:40:00.419Z,76.50
2023-01-31T04:41:00.361Z,76.46
2023-01-31T04:42:00.392Z,76.46
2023-01-31T04:43:00.445Z,76.46
2023-01-31T04:44:00.357Z,76.46
2023-01-31T04:45:00.357Z,76.46
2023-01-31T04:46:00.420Z,76.91
2023-01-31T04:47:00.422Z,76.91
2023-01-31T04:48:00.352Z,76.91
2023-01-31T04:49:00.369Z,76.91
2023-01-31T04:50:00.366Z,76.91
2023-01-31T04:51:00.497Z,77.26
2023-01-31T04:52:00.362Z,77.26
2023-01-31T04:53:00.393Z,77.26
2023-01-31T04:54:00.347Z,77.26
2023-01-31T04:55:00.348Z,77.26
2023-01-31T04:56:00.528Z,77.24
2023-01-31T04:57:00.846Z,77.24
2023-01-31T04:58:00.459Z,77.24
2023-01-31T04:59:00.442Z,77.24
2023-01-31T05:00:00.368Z,77.24
2023-01-31T05:01:00.407Z,77.28
2023-01-31T05:02:00.341Z,77.28
2023-01-31T05:03:00.421Z,77.28
2023-01-31T05:04:00.400Z,77.28
2023-01-31T05:05:00.363Z,77.28
2023-01-31T05:06:00.356Z,77.51
2023-01-31T05:07:00.392Z,77.51
2023-01-31T05:08:00.352Z,77.51
2023-01-31T05:09:00.371Z,77.51
2023-01-31T05:10:00.379Z,77.51
2023-01-31T05:11:03.922Z,78.11
2023-01-31T05:12:00.398Z,78.11
2023-01-31T05:13:00.439Z,78.11
2023-01-31T05:14:00.351Z,78.11
2023-01-31T05:15:00.348Z,78.11
2023-01-31T05:16:00.439Z,77.82
2023-01-31T05:17:00.354Z,77.82
2023-01-31T05:18:00.652Z,77.82
2023-01-31T05:19:00.785Z,77.82
2023-01-31T05:20:00.352Z,77.82
2023-01-31T05:21:00.558Z,78.30
2023-01-31T05:22:00.400Z,78.30
2023-01-31T05:23:00.354Z,78.30
2023-01-31T05:24:00.362Z,78.30
2023-01-31T05:25:00.419Z,78.30
2023-01-31T05:26:00.541Z,78.72
2023-01-31T05:27:00.849Z,78.72
2023-01-31T05:28:00.508Z,78.72
2023-01-31T05:29:00.388Z,78.72
2023-01-31T05:30:00.347Z,78.72
2023-01-31T05:31:01.801Z,79.15
2023-01-31T05:32:01.079Z,79.15
2023-01-31T05:33:00.355Z,79.15
2023-01-31T05:34:00.367Z,79.15
2023-01-31T05:35:00.361Z,79.15
2023-01-31T05:36:00.420Z,78.96
2023-01-31T05:37:00.911Z,78.96
2023-01-31T05:38:00.399Z,78.96
2023-01-31T05:39:00.343Z,78.96
2023-01-31T05:40:00.361Z,78.96
2023-01-31T05:41:00.408Z,78.97
2023-01-31T05:42:00.426Z,78.97
2023-01-31T05:43:00.350Z,78.97
2023-01-31T05:44:00.586Z,78.97
2023-01-31T05:45:00.368Z,78.97
2023-01-31T05:46:00.396Z,79.20
2023-01-31T05:47:00.357Z,79.20
2023-01-31T05:48:00.385Z,79.20
2023-01-31T05:49:00.957Z,79.20
2023-01-31T05:50:01.202Z,79.20
2023-01-31T05:51:00.839Z,79.50
2023-01-31T05:52:00.860Z,79.50
2023-01-31T05:53:00.932Z,79.50
2023-01-31T05:54:00.527Z,79.50
2023-01-31T05:55:00.486Z,79.50
2023-01-31T05:56:00.447Z,79.83
2023-01-31T05:57:00.417Z,79.83
2023-01-31T05:58:00.345Z,79.83
2023-01-31T05:59:00.411Z,79.83
2023-01-31T06:00:00.383Z,79.83
2023-01-31T06:01:01.047Z,79.91
2023-01-31T06:02:01.029Z,79.91
2023-01-31T06:03:00.968Z,79.91
2023-01-31T06:04:00.798Z,79.91
2023-01-31T06:05:00.556Z,79.91
2023-01-31T06:06:00.548Z,79.71
2023-01-31T06:07:00.470Z,79.71
2023-01-31T06:08:00.421Z,79.71
2023-01-31T06:09:00.373Z,79.71
2023-01-31T06:10:00.939Z,79.71
2023-01-31T06:11:01.382Z,79.79
2023-01-31T06:12:00.889Z,79.79
2023-01-31T06:13:00.363Z,79.79
2023-01-31T06:14:00.776Z,79.79
2023-01-31T06:15:00.881Z,79.79
2023-01-31T06:16:00.769Z,79.78
2023-01-31T06:17:00.591Z,79.78
2023-01-31T06:18:00.367Z,79.78
2023-01-31T06:19:00.347Z,79.78
2023-01-31T06:20:00.391Z,79.78
2023-01-31T06:21:00.649Z,79.85
2023-01-31T06:22:00.356Z,79.85
2023-01-31T06:23:00.389Z,79.85
2023-01-31T06:24:00.366Z,79.85
2023-01-31T06:25:00.387Z,79.85
2023-01-31T06:26:00.585Z,80.10
2023-01-31T06:27:00.366Z,80.10
2023-01-31T06:28:00.365Z,80.10
2023-01-31T06:29:00.358Z,80.10
2023-01-31T06:30:00.423Z,80.10
2023-01-31T06:31:05.107Z,80.00
2023-01-31T06:32:00.375Z,80.00
2023-01-31T06:33:00.816Z,80.00
2023-01-31T06:34:00.515Z,80.00
2023-01-31T06:35:00.353Z,80.00
2023-01-31T06:36:00.868Z,80.15
2023-01-31T06:37:00.355Z,80.15
2023-01-31T06:38:00.447Z,80.15
2023-01-31T06:39:00.390Z,80.15
2023-01-31T06:40:00.422Z,80.15
2023-01-31T06:41:00.355Z,80.41
2023-01-31T06:42:00.345Z,80.41
2023-01-31T06:43:00.402Z,80.41
2023-01-31T06:44:00.440Z,80.41
2023-01-31T06:45:00.366Z,80.41
2023-01-31T06:46:00.381Z,80.61
2023-01-31T06:47:00.738Z,80.61
2023-01-31T06:48:00.349Z,80.61
2023-01-31T06:49:00.398Z,80.61
2023-01-31T06:50:00.394Z,80.61
2023-01-31T06:51:00.747Z,80.47
2023-01-31T06:52:00.347Z,80.47
2023-01-31T06:53:00.452Z,80.47
2023-01-31T06:54:00.374Z,80.47
2023-01-31T06:55:00.354Z,80.47
2023-01-31T06:56:00.403Z,81.08
2023-01-31T06:57:00.348Z,81.08
2023-01-31T06:58:00.395Z,81.08
2023-01-31T06:59:00.413Z,81.08
2023-01-31T07:00:00.479Z,81.08
2023-01-31T07:01:04.252Z,81.04
2023-01-31T07:02:00.347Z,81.04
2023-01-31T07:03:00.347Z,81.04
2023-01-31T07:04:00.343Z,81.04
2023-01-31T07:05:00.420Z,81.04
2023-01-31T07:06:00.579Z,81.33
2023-01-31T07:07:00.346Z,81.33
2023-01-31T07:08:00.363Z,81.33
2023-01-31T07:09:00.425Z,81.33
2023-01-31T07:10:00.355Z,81.33
2023-01-31T07:11:00.821Z,81.17
2023-01-31T07:12:01.088Z,81.17
2023-01-31T07:13:00.337Z,81.17
2023-01-31T07:14:00.342Z,81.17
2023-01-31T07:15:00.352Z,81.17
2023-01-31T07:16:00.503Z,81.38
2023-01-31T07:17:00.351Z,81.38
2023-01-31T07:18:00.395Z,81.38
2023-01-31T07:19:00.343Z,81.38
2023-01-31T07:20:00.445Z,81.38
2023-01-31T07:21:00.357Z,81.31
2023-01-31T07:22:00.362Z,81.31
2023-01-31T07:23:00.352Z,81.31
2023-01-31T07:24:00.497Z,81.31
2023-01-31T07:25:00.368Z,81.31
2023-01-31T07:26:02.023Z,82.16
2023-01-31T07:27:00.387Z,82.16
2023-01-31T07:28:00.714Z,82.16
2023-01-31T07:29:00.349Z,82.16
2023-01-31T07:30:00.371Z,82.16
2023-01-31T07:31:10.346Z,81.25
2023-01-31T07:32:00.442Z,81.25
2023-01-31T07:33:00.351Z,81.25
2023-01-31T07:34:00.348Z,81.25
2023-01-31T07:35:00.348Z,81.25
2023-01-31T07:36:01.018Z,81.30
2023-01-31T07:37:00.420Z,81.30
2023-01-31T07:38:00.355Z,81.30
2023-01-31T07:39:00.352Z,81.30
2023-01-31T07:40:00.349Z,81.30
2023-01-31T07:41:01.332Z,81.11
2023-01-31T07:42:00.347Z,81.11
2023-01-31T07:43:00.395Z,81.11
2023-01-31T07:44:00.369Z,81.11
2023-01-31T07:45:13.060Z,81.11
2023-01-31T07:46:00.669Z,81.49
2023-01-31T07:47:00.364Z,81.49
2023-01-31T07:48:00.347Z,81.49
2023-01-31T07:49:00.432Z,81.49
2023-01-31T07:50:00.394Z,81.49
2023-01-31T07:51:01.251Z,81.79
2023-01-31T07:52:00.536Z,81.79
2023-01-31T07:53:00.383Z,81.79
2023-01-31T07:54:00.829Z,81.79
2023-01-31T07:55:00.375Z,81.79
2023-01-31T07:56:10.263Z,82.06
2023-01-31T07:57:00.353Z,82.06
2023-01-31T07:58:00.342Z,82.06
2023-01-31T07:59:00.367Z,82.06
2023-01-31T08:00:00.378Z,82.06
2023-01-31T08:01:00.522Z,81.80
2023-01-31T08:02:00.359Z,81.80
2023-01-31T08:03:00.784Z,81.80
2023-01-31T08:04:10.652Z,81.80
2023-01-31T08:05:00.420Z,81.80
2023-01-31T08:06:01.428Z,81.50
2023-01-31T08:07:00.389Z,81.50
2023-01-31T08:08:00.365Z,81.50
2023-01-31T08:09:00.445Z,81.50
2023-01-31T08:10:00.424Z,81.50
2023-01-31T08:11:00.396Z,81.79
2023-01-31T08:12:00.473Z,81.79
2023-01-31T08:13:00.356Z,81.79
2023-01-31T08:14:00.353Z,81.79
2023-01-31T08:15:00.350Z,81.79
2023-01-31T08:16:01.114Z,81.56
2023-01-31T08:17:00.393Z,81.56
2023-01-31T08:18:00.372Z,81.56
2023-01-31T08:19:00.377Z,81.56
2023-01-31T08:20:00.347Z,81.56
2023-01-31T08:21:00.396Z,81.62
2023-01-31T08:22:00.606Z,81.62
2023-01-31T08:23:00.435Z,81.62
2023-01-31T08:24:00.351Z,81.62
2023-01-31T08:25:00.384Z,81.62
2023-01-31T08:26:01.853Z,81.87
2023-01-31T08:27:00.368Z,81.87
2023-01-31T08:28:00.486Z,81.87
2023-01-31T08:29:00.519Z,81.87
2023-01-31T08:30:00.348Z,81.87
2023-01-31T08:31:08.590Z,81.84
2023-01-31T08:32:00.524Z,81.84
2023-01-31T08:33:00.385Z,81.84
2023-01-31T08:34:00.371Z,81.84
2023-01-31T08:35:00.343Z,81.84
2023-01-31T08:36:10.260Z,81.51
2023-01-31T08:37:00.448Z,81.51
2023-01-31T08:38:15.299Z,81.51
2023-01-31T08:39:01.099Z,81.51
2023-01-31T08:40:00.367Z,81.51
2023-01-31T08:41:00.366Z,81.77
2023-01-31T08:42:00.354Z,81.77
2023-01-31T08:43:00.465Z,81.77
2023-01-31T08:44:02.788Z,81.77
2023-01-31T08:45:00.395Z,81.77
2023-01-31T08:46:00.348Z,81.66
2023-01-31T08:47:00.426Z,81.66
2023-01-31T08:48:00.441Z,81.66
2023-01-31T08:49:01.166Z,81.66
2023-01-31T08:50:00.342Z,81.66
2023-01-31T08:51:01.309Z,81.51
2023-01-31T08:52:00.343Z,81.51
2023-01-31T08:53:01.833Z,81.51
2023-01-31T08:54:00.479Z,81.51
2023-01-31T08:55:00.345Z,81.51
2023-01-31T08:56:01.171Z,81.76
2023-01-31T08:57:00.360Z,81.76
2023-01-31T08:58:00.689Z,81.76
2023-01-31T08:59:00.417Z,81.76
2023-01-31T09:00:00.398Z,81.76
2023-01-31T09:01:00.829Z,81.79
2023-01-31T09:02:01.103Z,81.79
2023-01-31T09:03:00.364Z,81.79
2023-01-31T09:04:00.361Z,81.79
2023-01-31T09:05:00.387Z,81.79
2023-01-31T09:06:01.037Z,81.37
2023-01-31T09:07:00.367Z,81.37
2023-01-31T09:08:00.369Z,81.37
2023-01-31T09:09:00.342Z,81.37
2023-01-31T09:10:00.452Z,81.37
2023-01-31T09:11:00.354Z,81.20
2023-01-31T09:12:01.898Z,81.20
2023-01-31T09:13:00.357Z,81.20
2023-01-31T09:14:00.397Z,81.20
2023-01-31T09:15:01.056Z,81.20
2023-01-31T09:16:04.874Z,81.82
2023-01-31T09:17:00.428Z,81.82
2023-01-31T09:18:00.381Z,81.82
2023-01-31T09:19:00.407Z,81.82
2023-01-31T09:20:00.343Z,81.82
2023-01-31T09:21:10.274Z,81.34
2023-01-31T09:22:00.360Z,81.34
2023-01-31T09:23:00.358Z,81.34
2023-01-31T09:24:00.387Z,81.34
2023-01-31T09:25:00.765Z,81.34
2023-01-31T09:26:00.403Z,81.89
2023-01-31T09:27:00.376Z,81.89
2023-01-31T09:28:00.362Z,81.89
2023-01-31T09:29:00.392Z,81.89
2023-01-31T09:30:00.391Z,81.89
2023-01-31T09:31:02.904Z,81.39
2023-01-31T09:32:00.425Z,81.39
2023-01-31T09:33:00.370Z,81.39
2023-01-31T09:34:00.338Z,81.39
2023-01-31T09:35:00.375Z,81.39
2023-01-31T09:36:01.955Z,81.48
2023-01-31T09:37:00.376Z,81.48
2023-01-31T09:38:00.391Z,81.48
2023-01-31T09:39:00.357Z,81.48
2023-01-31T09:40:00.362Z,81.48
2023-01-31T09:41:02.446Z,81.40
2023-01-31T09:42:07.679Z,81.40
2023-01-31T09:43:01.572Z,81.40
2023-01-31T09:44:02.666Z,81.40
2023-01-31T09:45:03.273Z,81.40
2023-01-31T09:46:02.307Z,81.12
2023-01-31T09:47:08.297Z,81.12
2023-01-31T09:48:01.131Z,81.12
2023-01-31T09:49:01.738Z,81.12
2023-01-31T09:50:03.066Z,81.12
2023-01-31T09:51:02.138Z,80.98
2023-01-31T09:52:01.872Z,80.98
2023-01-31T09:53:00.963Z,80.98
2023-01-31T09:54:01.588Z,80.98
2023-01-31T09:55:00.516Z,80.98
2023-01-31T09:56:03.652Z,81.19
2023-01-31T09:57:06.639Z,81.19
2023-01-31T09:58:01.378Z,81.19
2023-01-31T09:59:10.257Z,81.19
2023-01-31T10:00:03.641Z,81.19
2023-01-31T10:01:10.320Z,80.74
2023-01-31T10:02:10.261Z,80.74
2023-01-31T10:03:10.264Z,80.74
2023-01-31T10:04:10.484Z,80.74
2023-01-31T10:05:00.336Z,80.74
2023-01-31T10:06:10.271Z,80.50
2023-01-31T10:07:04.515Z,80.50
2023-01-31T10:08:00.324Z,80.50
2023-01-31T10:09:10.269Z,80.50
2023-01-31T10:10:10.256Z,80.50
2023-01-31T10:11:01.705Z,80.22
2023-01-31T10:12:09.053Z,80.22
2023-01-31T10:13:03.526Z,80.22
2023-01-31T10:14:04.403Z,80.22
2023-01-31T10:15:03.972Z,80.22
2023-01-31T10:16:04.986Z,80.28
2023-01-31T10:17:10.308Z,80.28
2023-01-31T10:18:04.366Z,80.28
2023-01-31T10:19:03.389Z,80.28
2023-01-31T10:20:04.814Z,80.28
2023-01-31T10:21:06.094Z,80.31
2023-01-31T10:22:03.933Z,80.31
2023-01-31T10:23:03.669Z,80.31
2023-01-31T10:24:10.258Z,80.31
2023-01-31T10:25:10.276Z,80.31
2023-01-31T10:26:01.468Z,80.24
2023-01-31T10:27:04.703Z,80.24
2023-01-31T10:28:03.694Z,80.24
2023-01-31T10:29:09.529Z,80.24
2023-01-31T10:30:01.893Z,80.24
2023-01-31T10:31:00.425Z,79.92
2023-01-31T10:32:05.254Z,79.92
2023-01-31T10:33:08.136Z,79.92
2023-01-31T10:34:10.264Z,79.92
2023-01-31T10:35:10.258Z,79.92
2023-01-31T10:36:02.833Z,80.00
2023-01-31T10:37:04.340Z,80.00
2023-01-31T10:38:00.366Z,80.00
2023-01-31T10:39:06.104Z,80.00
2023-01-31T10:40:02.859Z,80.00
2023-01-31T10:41:08.329Z,79.80
2023-01-31T10:42:01.345Z,79.80
2023-01-31T10:43:03.877Z,79.80
2023-01-31T10:44:02.523Z,79.80
2023-01-31T10:45:04.601Z,79.80
2023-01-31T10:46:00.878Z,79.58
2023-01-31T10:47:00.404Z,79.58
2023-01-31T10:48:10.277Z,79.58
2023-01-31T10:49:00.431Z,79.58
2023-01-31T10:50:01.384Z,79.58
2023-01-31T10:51:06.453Z,79.44
2023-01-31T10:52:10.257Z,79.44
2023-01-31T10:53:10.254Z,79.44
2023-01-31T10:54:10.274Z,79.44
2023-01-31T10:55:10.257Z,79.44
2023-01-31T10:56:04.250Z,79.60
2023-01-31T10:57:00.372Z,79.60
2023-01-31T10:58:01.542Z,79.60
2023-01-31T10:59:03.437Z,79.60
2023-01-31T11:00:00.497Z,79.60
2023-01-31T11:01:00.469Z,78.91
2023-01-31T11:02:01.260Z,78.91
2023-01-31T11:03:00.367Z,78.91
2023-01-31T11:04:00.881Z,78.91
2023-01-31T11:05:00.394Z,78.91
2023-01-31T11:06:00.389Z,76.53
2023-01-31T11:07:00.873Z,76.53
2023-01-31T11:08:02.440Z,76.53
2023-01-31T11:09:00.495Z,76.53
2023-01-31T11:10:10.282Z,76.53
2023-01-31T11:11:05.732Z,75.42
2023-01-31T11:12:01.885Z,75.42
2023-01-31T11:13:02.110Z,75.42
2023-01-31T11:14:00.343Z,75.42
2023-01-31T11:15:05.831Z,75.42
2023-01-31T11:16:01.957Z,73.89
2023-01-31T11:17:04.222Z,73.89
2023-01-31T11:18:00.770Z,73.89
2023-01-31T11:19:02.111Z,73.89
2023-01-31T11:20:00.803Z,73.89
2023-01-31T11:21:01.192Z,71.87
2023-01-31T11:22:00.823Z,71.87
2023-01-31T11:23:01.154Z,71.87
2023-01-31T11:24:02.223Z,71.87
2023-01-31T11:25:01.900Z,71.87
2023-01-31T11:26:01.088Z,71.64
2023-01-31T11:27:02.824Z,71.64
2023-01-31T11:28:02.585Z,71.64
2023-01-31T11:29:01.107Z,71.64
2023-01-31T11:30:00.888Z,71.64
2023-01-31T11:31:00.935Z,70.69
2023-01-31T11:32:03.057Z,70.69
2023-01-31T11:33:00.728Z,70.69
2023-01-31T11:34:01.831Z,70.69
2023-01-31T11:35:10.294Z,70.69
2023-01-31T11:36:05.983Z,67.48
2023-01-31T11:37:05.565Z,67.48
2023-01-31T11:38:02.571Z,67.48
2023-01-31T11:39:10.272Z,67.48
2023-01-31T11:40:02.348Z,67.48
2023-01-31T11:41:00.379Z,68.84
2023-01-31T11:42:10.270Z,68.84
2023-01-31T11:43:01.877Z,68.84
2023-01-31T11:44:10.261Z,68.84
2023-01-31T11:45:01.348Z,68.84
2023-01-31T11:46:01.697Z,67.72
2023-01-31T11:47:03.226Z,67.72
2023-01-31T11:48:10.256Z,67.72
2023-01-31T11:49:09.101Z,67.72
2023-01-31T11:50:00.659Z,67.72
2023-01-31T11:51:01.523Z,66.90
2023-01-31T11:52:02.182Z,66.90
2023-01-31T11:53:02.291Z,66.90
2023-01-31T11:54:02.822Z,66.90
2023-01-31T11:55:04.528Z,66.90
2023-01-31T11:56:10.269Z,66.42
2023-01-31T11:57:00.892Z,66.42
2023-01-31T11:58:01.186Z,66.42
2023-01-31T11:59:02.399Z,66.42
2023-01-31T12:00:01.982Z,66.42
2023-01-31T12:01:04.441Z,66.03
2023-01-31T12:02:00.511Z,66.03
2023-01-31T12:03:03.172Z,66.03
2023-01-31T12:04:04.249Z,66.03
2023-01-31T12:05:00.816Z,66.03
2023-01-31T12:06:01.992Z,65.79
2023-01-31T12:07:01.978Z,65.79
2023-01-31T12:08:00.383Z,65.79
2023-01-31T12:09:01.677Z,65.79
2023-01-31T12:10:00.397Z,65.79
2023-01-31T12:11:03.548Z,65.54
2023-01-31T12:12:01.042Z,65.54
2023-01-31T12:13:17.631Z,65.54
2023-01-31T12:14:10.299Z,65.54
2023-01-31T12:15:03.351Z,65.54
2023-01-31T12:16:02.913Z,63.33
2023-01-31T12:17:00.514Z,63.33
2023-01-31T12:18:00.433Z,63.33
2023-01-31T12:19:10.257Z,63.33
2023-01-31T12:20:21.364Z,63.33
2023-01-31T12:21:08.117Z,60.26
2023-01-31T12:22:10.286Z,60.26
2023-01-31T12:23:10.262Z,60.26
2023-01-31T12:24:10.265Z,60.26
2023-01-31T12:25:00.349Z,60.26
2023-01-31T12:26:07.204Z,58.59
2023-01-31T12:27:00.363Z,58.59
2023-01-31T12:28:07.958Z,58.59
2023-01-31T12:29:00.358Z,58.59
2023-01-31T12:30:10.265Z,58.59
2023-01-31T12:31:01.609Z,58.45
2023-01-31T12:32:10.297Z,58.45
2023-01-31T12:33:00.353Z,58.45
2023-01-31T12:34:07.965Z,58.45
2023-01-31T12:35:03.824Z,58.45
2023-01-31T12:36:10.255Z,57.45
2023-01-31T12:37:10.285Z,57.45
2023-01-31T12:38:03.626Z,57.45
2023-01-31T12:39:00.378Z,57.45
2023-01-31T12:40:18.743Z,57.45
2023-01-31T12:41:10.281Z,56.16
2023-01-31T12:42:10.263Z,56.16
2023-01-31T12:43:02.447Z,56.16
2023-01-31T12:44:10.304Z,56.16
2023-01-31T12:45:10.293Z,56.16
2023-01-31T12:46:08.651Z,55.79
2023-01-31T12:47:10.867Z,55.79
2023-01-31T12:48:07.662Z,55.79
2023-01-31T12:49:10.273Z,55.79
2023-01-31T12:50:05.842Z,55.79
2023-01-31T12:51:05.683Z,55.22
2023-01-31T12:52:10.258Z,55.22